Time;durP1;ratioP1;P1;durP2;ratioP2;P2;SDS_P1;SDS_P2;PMS_P1;PMS_P2;Temp;Humidity;BMP_temperature;BMP_pressure;BME280_temperature;BME280_humidity;BME280_pressure;Samples;Min_cycle;Max_cycle;Signal;HPM_P1;HPM_P2
2022/01/29 00:01:50;;;;;;;10.97;7.37;;;;;;;;;;5072613;28;20460;-68
2022/01/29 00:04:16;;;;;;;11.23;7.03;;;;;;;;;;5055020;28;20419;-70
2022/01/29 00:06:43;;;;;;;15.67;7.37;;;;;;;;;;5072835;28;20446;-68
2022/01/29 00:09:13;;;;;;;13.17;7.20;;;;;;;;;;5073935;28;20422;-70
2022/01/29 00:11:39;;;;;;;13.20;7.30;;;;;;;;;;5077030;28;20413;-70
2022/01/29 00:14:06;;;;;;;11.43;8.03;;;;;;;;;;5076853;28;20868;-70
2022/01/29 00:16:32;;;;;;;9.77;7.27;;;;;;;;;;5076887;28;20776;-69
2022/01/29 00:18:58;;;;;;;12.77;7.40;;;;;;;;;;5076624;28;20910;-68
2022/01/29 00:21:24;;;;;;;14.63;8.20;;;;;;;;;;5076689;28;20408;-70
2022/01/29 00:23:50;;;;;;;10.10;8.00;;;;;;;;;;5076661;28;20398;-70
2022/01/29 00:26:20;;;;;;;12.53;8.50;;;;;;;;;;5058716;28;20900;-70
2022/01/29 00:28:46;;;;;;;12.27;7.53;;;;;;;;;;5076672;28;20403;-68
2022/01/29 00:31:12;;;;;;;12.93;7.40;;;;;;;;;;5058483;28;20410;-68
2022/01/29 00:33:38;;;;;;;13.03;7.37;;;;;;;;;;5058494;28;20462;-69
2022/01/29 00:36:05;;;;;;;10.43;7.17;;;;;;;;;;5076414;28;20417;-68
2022/01/29 00:38:31;;;;;;;9.87;7.30;;;;;;;;;;5076103;28;20546;-69
2022/01/29 00:40:57;;;;;;;10.20;6.77;;;;;;;;;;5076280;28;20460;-68
2022/01/29 00:43:23;;;;;;;11.10;7.60;;;;;;;;;;5058154;28;20776;-68
2022/01/29 00:45:49;;;;;;;10.13;7.63;;;;;;;;;;5076135;28;20405;-68
2022/01/29 00:48:15;;;;;;;11.70;6.87;;;;;;;;;;5076206;28;20408;-68
2022/01/29 00:50:41;;;;;;;12.47;8.10;;;;;;;;;;5076140;28;20400;-68
2022/01/29 00:53:07;;;;;;;8.87;6.50;;;;;;;;;;5076166;28;20402;-68
2022/01/29 00:55:33;;;;;;;12.23;7.50;;;;;;;;;;5076189;28;20458;-68
2022/01/29 00:57:59;;;;;;;9.80;6.90;;;;;;;;;;5075872;28;20397;-69
2022/01/29 01:00:25;;;;;;;13.73;7.00;;;;;;;;;;5075967;28;20429;-70
2022/01/29 01:02:51;;;;;;;12.60;7.07;;;;;;;;;;5075710;28;20459;-70
2022/01/29 01:05:17;;;;;;;10.33;6.80;;;;;;;;;;5075966;28;20414;-70
2022/01/29 01:07:44;;;;;;;9.23;6.20;;;;;;;;;;5075905;28;20488;-70
2022/01/29 01:10:10;;;;;;;9.67;5.83;;;;;;;;;;5075699;28;20427;-70
2022/01/29 01:12:36;;;;;;;9.73;6.70;;;;;;;;;;5075767;28;20522;-70
2022/01/29 01:15:06;;;;;;;11.70;6.70;;;;;;;;;;5075704;28;20418;-70
2022/01/29 01:17:32;;;;;;;10.30;6.50;;;;;;;;;;5057689;28;20534;-70
2022/01/29 01:19:58;;;;;;;11.10;6.57;;;;;;;;;;5075065;28;20508;-70
2022/01/29 01:22:24;;;;;;;10.20;6.43;;;;;;;;;;5057616;28;20419;-70
2022/01/29 01:24:50;;;;;;;9.73;6.07;;;;;;;;;;5075643;28;20881;-70
2022/01/29 01:27:16;;;;;;;7.67;5.70;;;;;;;;;;5075549;28;20452;-70
2022/01/29 01:29:43;;;;;;;9.33;6.57;;;;;;;;;;5075510;28;20503;-70
2022/01/29 01:32:12;;;;;;;10.53;6.17;;;;;;;;;;5075465;28;20791;-69
2022/01/29 01:34:45;;;;;;;10.23;6.23;;;;;;;;;;5075381;28;20393;-70
2022/01/29 01:37:17;;;;;;;10.43;5.50;;;;;;;;;;5057379;28;20975;-71
2022/01/29 01:39:43;;;;;;;9.83;6.03;;;;;;;;;;5075299;28;20467;-70
2022/01/29 01:42:09;;;;;;;10.47;6.47;;;;;;;;;;5075154;28;20401;-70
2022/01/29 01:44:42;;;;;;;9.70;6.70;;;;;;;;;;5075147;28;20410;-69
2022/01/29 01:47:08;;;;;;;9.93;5.77;;;;;;;;;;5075118;28;20392;-70
2022/01/29 01:49:34;;;;;;;8.63;5.80;;;;;;;;;;5075207;28;20468;-70
2022/01/29 01:52:00;;;;;;;12.47;6.23;;;;;;;;;;5074996;28;20399;-70
2022/01/29 01:54:26;;;;;;;9.37;6.20;;;;;;;;;;5075020;28;20401;-70
2022/01/29 01:56:52;;;;;;;8.77;5.90;;;;;;;;;;5074872;28;20386;-70
2022/01/29 01:59:18;;;;;;;9.90;6.37;;;;;;;;;;5074905;28;20458;-70
2022/01/29 02:01:45;;;;;;;9.70;6.10;;;;;;;;;;5074560;28;20450;-70
2022/01/29 02:04:11;;;;;;;12.53;6.20;;;;;;;;;;5074804;28;20406;-70
2022/01/29 02:06:37;;;;;;;8.67;5.90;;;;;;;;;;5074795;28;20454;-70
2022/01/29 02:09:03;;;;;;;10.73;5.87;;;;;;;;;;5056761;28;20512;-70
2022/01/29 02:11:30;;;;;;;6.53;5.57;;;;;;;;;;5074548;28;20889;-70
2022/01/29 02:13:58;;;;;;;10.10;5.20;;;;;;;;;;5056698;28;20861;-70
2022/01/29 02:16:27;;;;;;;8.43;5.97;;;;;;;;;;5074577;28;20393;-70
2022/01/29 02:18:53;;;;;;;11.80;6.10;;;;;;;;;;5074403;28;20463;-70
2022/01/29 02:21:20;;;;;;;7.00;5.53;;;;;;;;;;5074433;28;20399;-70
2022/01/29 02:23:46;;;;;;;7.97;5.43;;;;;;;;;;5074438;28;20412;-70
2022/01/29 02:26:12;;;;;;;15.53;8.57;;;;;;;;;;5074389;28;20457;-71
2022/01/29 02:28:38;;;;;;;28.63;12.20;;;;;;;;;;5074201;28;20777;-68
2022/01/29 02:31:04;;;;;;;11.00;7.40;;;;;;;;;;5073852;28;20494;-68
2022/01/29 02:33:31;;;;;;;14.90;7.13;;;;;;;;;;5073825;28;20497;-68
2022/01/29 02:35:58;;;;;;;14.93;5.27;;;;;;;;;;5073878;28;20415;-68
2022/01/29 02:38:25;;;;;;;7.73;5.03;;;;;;;;;;5074097;28;20928;-68
2022/01/29 02:40:55;;;;;;;9.77;6.13;;;;;;;;;;5074037;28;20423;-68
2022/01/29 02:43:26;;;;;;;31.63;12.10;;;;;;;;;;5074226;28;20398;-69
2022/01/29 02:45:53;;;;;;;17.03;8.23;;;;;;;;;;5074110;28;20402;-69
2022/01/29 02:48:20;;;;;;;14.33;7.87;;;;;;;;;;5074050;28;20410;-68
2022/01/29 02:50:47;;;;;;;12.57;6.07;;;;;;;;;;5073842;28;20404;-68
2022/01/29 02:53:13;;;;;;;10.50;5.93;;;;;;;;;;5073801;28;20412;-69
2022/01/29 02:55:39;;;;;;;7.67;5.03;;;;;;;;;;5055819;28;20502;-70
2022/01/29 02:58:05;;;;;;;8.70;5.80;;;;;;;;;;5055803;28;20425;-71
2022/01/29 03:00:32;;;;;;;9.10;5.77;;;;;;;;;;5055709;28;20909;-70
2022/01/29 03:02:58;;;;;;;8.53;5.53;;;;;;;;;;5073388;28;20458;-71
2022/01/29 03:05:24;;;;;;;7.07;5.13;;;;;;;;;;5073730;28;20405;-71
2022/01/29 03:07:50;;;;;;;12.47;6.00;;;;;;;;;;5073656;28;20877;-70
2022/01/29 03:10:16;;;;;;;7.60;6.57;;;;;;;;;;5073443;28;20493;-70
2022/01/29 03:12:42;;;;;;;8.33;4.70;;;;;;;;;;5073443;28;20493;-70
2022/01/29 03:15:09;;;;;;;6.00;4.50;;;;;;;;;;5073387;28;20533;-71
2022/01/29 03:17:35;;;;;;;8.47;5.50;;;;;;;;;;5073507;28;20405;-70
2022/01/29 03:20:01;;;;;;;6.87;4.80;;;;;;;;;;5073349;28;20766;-70
2022/01/29 03:22:27;;;;;;;8.43;5.53;;;;;;;;;;5073300;28;20758;-70
2022/01/29 03:24:53;;;;;;;7.00;5.53;;;;;;;;;;5055399;28;20444;-71
2022/01/29 03:27:19;;;;;;;9.40;6.17;;;;;;;;;;5055253;28;20406;-71
2022/01/29 03:29:45;;;;;;;9.50;5.30;;;;;;;;;;5073363;28;20907;-68
2022/01/29 03:32:11;;;;;;;10.30;6.00;;;;;;;;;;5055224;28;20406;-69
2022/01/29 03:34:37;;;;;;;6.77;4.60;;;;;;;;;;5073247;28;20893;-68
2022/01/29 03:37:04;;;;;;;7.17;4.47;;;;;;;;;;5073101;28;20794;-69
2022/01/29 03:39:30;;;;;;;5.50;4.43;;;;;;;;;;5072993;28;20466;-68
2022/01/29 03:42:02;;;;;;;4.67;4.00;;;;;;;;;;5073094;28;20409;-68
2022/01/29 03:44:28;;;;;;;8.00;4.73;;;;;;;;;;5054974;28;20453;-68
2022/01/29 03:46:54;;;;;;;4.87;4.00;;;;;;;;;;5073181;28;20428;-68
2022/01/29 03:49:20;;;;;;;7.60;4.43;;;;;;;;;;5073031;28;20413;-70
2022/01/29 03:51:47;;;;;;;8.10;4.57;;;;;;;;;;5072877;28;20492;-71
2022/01/29 03:54:13;;;;;;;6.17;4.27;;;;;;;;;;5072928;28;20464;-70
2022/01/29 03:56:39;;;;;;;8.03;4.60;;;;;;;;;;5072894;28;20454;-70
2022/01/29 03:59:05;;;;;;;6.07;4.47;;;;;;;;;;5072797;28;20519;-70
2022/01/29 04:01:31;;;;;;;4.23;3.83;;;;;;;;;;5072666;28;20458;-71
2022/01/29 04:03:57;;;;;;;5.60;3.90;;;;;;;;;;5072887;28;20483;-70
2022/01/29 04:06:24;;;;;;;3.70;3.33;;;;;;;;;;5072920;28;20863;-70
2022/01/29 04:08:50;;;;;;;6.83;3.90;;;;;;;;;;5072883;28;20410;-70
2022/01/29 04:11:16;;;;;;;4.83;3.70;;;;;;;;;;5072846;28;20887;-70
2022/01/29 04:13:45;;;;;;;6.47;3.93;;;;;;;;;;5072843;28;20823;-70
2022/01/29 04:16:12;;;;;;;6.90;3.90;;;;;;;;;;5054789;28;20391;-70
2022/01/29 04:18:38;;;;;;;6.90;4.77;;;;;;;;;;5072706;28;20497;-71
2022/01/29 04:21:05;;;;;;;6.60;4.00;;;;;;;;;;5054766;28;20407;-70
2022/01/29 04:23:31;;;;;;;6.13;4.40;;;;;;;;;;5054673;28;20781;-71
2022/01/29 04:25:57;;;;;;;6.13;3.23;;;;;;;;;;5054850;28;20961;-70
2022/01/29 04:28:28;;;;;;;4.37;3.47;;;;;;;;;;5072690;28;20765;-68
2022/01/29 04:31:00;;;;;;;4.23;3.47;;;;;;;;;;5054785;28;20422;-70
2022/01/29 04:35:52;;;;;;;6.20;3.50;;;;;;;;;;5072519;28;20414;-68
2022/01/29 04:38:18;;;;;;;4.40;3.40;;;;;;;;;;5072541;28;20399;-68
2022/01/29 04:40:44;;;;;;;4.83;3.60;;;;;;;;;;5054544;28;20493;-68
2022/01/29 04:43:10;;;;;;;5.20;4.00;;;;;;;;;;5072625;28;20401;-70
2022/01/29 04:45:36;;;;;;;4.17;3.47;;;;;;;;;;5072571;28;20416;-70
2022/01/29 04:48:02;;;;;;;6.00;3.50;;;;;;;;;;5072402;28;20398;-71
2022/01/29 04:50:28;;;;;;;4.00;3.50;;;;;;;;;;5054505;28;20444;-71
2022/01/29 04:52:55;;;;;;;3.87;3.40;;;;;;;;;;5072604;28;20394;-71
2022/01/29 04:55:21;;;;;;;4.30;3.80;;;;;;;;;;5073763;28;20919;-71
2022/01/29 04:57:46;;;;;;;7.33;4.20;;;;;;;;;;5076075;28;20562;-71
2022/01/29 05:00:20;;;;;;;5.90;4.20;;;;;;;;;;5075964;28;20563;-71
2022/01/29 05:02:47;;;;;;;4.80;3.87;;;;;;;;;;5075819;28;20459;-71
2022/01/29 05:05:13;;;;;;;6.70;4.00;;;;;;;;;;5076002;28;20773;-71
2022/01/29 05:07:39;;;;;;;6.30;3.50;;;;;;;;;;5075930;28;20413;-71
2022/01/29 05:10:05;;;;;;;5.33;4.83;;;;;;;;;;5075769;28;20887;-70
2022/01/29 05:12:43;;;;;;;6.03;4.33;;;;;;;;;;5075827;28;20394;-70
2022/01/29 05:15:23;;;;;;;10.37;5.70;;;;;;;;;;5075876;28;20429;-70
2022/01/29 05:28:47;;;;;;;11.37;7.30;;;;;;;;;;5075578;28;20450;-68
2022/01/29 05:31:13;;;;;;;12.20;7.37;;;;;;;;;;5075436;28;20485;-68
2022/01/29 05:33:39;;;;;;;10.77;7.20;;;;;;;;;;5075476;28;20880;-68
2022/01/29 05:36:05;;;;;;;10.77;7.40;;;;;;;;;;5075289;28;20497;-69
2022/01/29 05:38:31;;;;;;;8.77;6.60;;;;;;;;;;5075161;28;20483;-68
2022/01/29 05:40:57;;;;;;;12.27;7.27;;;;;;;;;;5075369;28;20405;-69
2022/01/29 05:43:23;;;;;;;11.63;7.77;;;;;;;;;;5075267;28;20390;-71
2022/01/29 05:45:50;;;;;;;12.93;7.53;;;;;;;;;;5075245;28;20884;-70
2022/01/29 05:48:16;;;;;;;13.90;7.60;;;;;;;;;;5075184;28;20741;-70
2022/01/29 05:50:42;;;;;;;10.87;7.70;;;;;;;;;;5075110;28;20674;-70
2022/01/29 05:53:08;;;;;;;13.43;8.80;;;;;;;;;;5075116;28;20513;-71
2022/01/29 05:55:34;;;;;;;13.90;7.40;;;;;;;;;;5074912;28;20485;-71
2022/01/29 05:58:00;;;;;;;13.20;8.07;;;;;;;;;;5056996;28;20786;-71
2022/01/29 06:00:26;;;;;;;14.80;7.60;;;;;;;;;;5074715;28;20913;-70
2022/01/29 06:03:05;;;;;;;13.83;8.63;;;;;;;;;;5084922;28;20572;-71
2022/01/29 06:05:31;;;;;;;12.10;7.83;;;;;;;;;;5094970;28;20444;-71
2022/01/29 06:07:57;;;;;;;14.37;7.83;;;;;;;;;;5093941;28;20401;-72
2022/01/29 06:10:24;;;;;;;12.70;7.93;;;;;;;;;;5094958;28;20469;-72
2022/01/29 06:13:04;;;;;;;14.57;7.40;;;;;;;;;;5094911;28;20403;-72
2022/01/29 06:15:32;;;;;;;12.10;7.80;;;;;;;;;;5094903;28;20413;-69
2022/01/29 06:17:58;;;;;;;11.10;6.70;;;;;;;;;;5094904;28;20401;-69
2022/01/29 06:20:25;;;;;;;12.80;7.57;;;;;;;;;;5094638;28;20962;-67
2022/01/29 06:22:51;;;;;;;11.40;7.40;;;;;;;;;;5094726;28;20398;-67
2022/01/29 06:25:17;;;;;;;13.50;7.87;;;;;;;;;;5094763;28;20900;-67
2022/01/29 06:27:43;;;;;;;12.07;7.90;;;;;;;;;;5094690;28;20455;-68
2022/01/29 06:30:09;;;;;;;12.70;7.90;;;;;;;;;;5094495;28;20875;-68
2022/01/29 06:32:35;;;;;;;15.67;7.87;;;;;;;;;;5094580;28;20440;-68
2022/01/29 06:35:01;;;;;;;13.13;8.90;;;;;;;;;;5094481;28;20405;-68
2022/01/29 06:37:27;;;;;;;13.30;8.17;;;;;;;;;;5094391;28;20759;-68
2022/01/29 06:39:53;;;;;;;13.67;8.60;;;;;;;;;;5094252;28;20469;-68
2022/01/29 06:42:19;;;;;;;13.93;8.60;;;;;;;;;;5094360;28;20397;-68
2022/01/29 06:44:45;;;;;;;12.47;7.90;;;;;;;;;;5093096;28;20420;-68
2022/01/29 06:47:11;;;;;;;9.20;6.87;;;;;;;;;;5094378;28;20883;-68
2022/01/29 06:49:37;;;;;;;14.47;7.17;;;;;;;;;;5094190;28;20412;-68
2022/01/29 06:52:03;;;;;;;9.30;7.07;;;;;;;;;;5092935;28;20881;-67
2022/01/29 06:54:29;;;;;;;14.20;8.73;;;;;;;;;;5092687;28;20525;-68
2022/01/29 06:56:56;;;;;;;16.27;9.40;;;;;;;;;;5093997;28;20487;-68
2022/01/29 06:59:22;;;;;;;13.17;8.43;;;;;;;;;;5093806;28;20464;-68
2022/01/29 07:01:48;;;;;;;11.63;7.70;;;;;;;;;;5086856;28;20511;-68
2022/01/29 07:04:14;;;;;;;10.80;7.10;;;;;;;;;;5073706;28;20405;-68
2022/01/29 07:06:40;;;;;;;14.83;8.57;;;;;;;;;;5073539;28;20488;-68
2022/01/29 07:09:06;;;;;;;13.37;7.93;;;;;;;;;;5073558;28;20400;-68
2022/01/29 07:11:32;;;;;;;12.03;8.13;;;;;;;;;;5073506;28;20422;-68
2022/01/29 07:14:02;;;;;;;15.60;7.77;;;;;;;;;;5073368;28;20408;-68
2022/01/29 07:16:29;;;;;;;11.33;7.63;;;;;;;;;;5073343;28;20799;-68
2022/01/29 07:18:55;;;;;;;9.53;6.77;;;;;;;;;;5072993;28;20466;-68
2022/01/29 07:21:21;;;;;;;9.90;6.33;;;;;;;;;;5073355;28;20930;-68
2022/01/29 07:23:47;;;;;;;11.10;6.63;;;;;;;;;;5073481;28;20440;-68
2022/01/29 07:26:13;;;;;;;9.90;6.17;;;;;;;;;;5073302;28;20438;-67
2022/01/29 07:28:39;;;;;;;8.60;5.90;;;;;;;;;;5073220;28;20437;-67
2022/01/29 07:31:06;;;;;;;8.20;5.10;;;;;;;;;;5055254;28;20449;-69
2022/01/29 07:33:32;;;;;;;7.70;5.80;;;;;;;;;;5073316;28;20418;-67
2022/01/29 07:35:58;;;;;;;7.63;5.43;;;;;;;;;;5073145;28;20500;-68
2022/01/29 07:38:24;;;;;;;6.10;4.67;;;;;;;;;;5073075;28;20394;-68
2022/01/29 07:40:51;;;;;;;8.20;5.27;;;;;;;;;;5073174;28;20433;-67
2022/01/29 07:43:17;;;;;;;7.70;4.90;;;;;;;;;;5073205;28;20530;-67
2022/01/29 07:45:43;;;;;;;7.90;5.00;;;;;;;;;;5073015;28;20499;-68
2022/01/29 07:48:09;;;;;;;6.67;4.50;;;;;;;;;;5073052;28;20398;-68
2022/01/29 07:50:35;;;;;;;9.23;5.20;;;;;;;;;;5055095;28;20926;-68
2022/01/29 07:53:01;;;;;;;6.30;4.40;;;;;;;;;;5055181;28;20418;-70
2022/01/29 07:55:29;;;;;;;4.97;3.77;;;;;;;;;;5072941;28;20390;-69
2022/01/29 07:57:55;;;;;;;7.47;4.47;;;;;;;;;;5055174;28;20767;-69
2022/01/29 08:00:21;;;;;;;8.33;4.17;;;;;;;;;;5072878;28;20465;-68
2022/01/29 08:02:47;;;;;;;5.10;3.43;;;;;;;;;;5072735;28;20785;-67
2022/01/29 08:05:14;;;;;;;6.13;3.63;;;;;;;;;;5073096;28;20409;-68
2022/01/29 08:07:40;;;;;;;4.37;3.20;;;;;;;;;;5072865;28;20897;-68
2022/01/29 08:10:06;;;;;;;3.07;2.87;;;;;;;;;;5072952;28;20402;-68
2022/01/29 08:12:32;;;;;;;5.80;4.03;;;;;;;;;;5072907;28;20738;-68
2022/01/29 08:14:59;;;;;;;6.70;4.20;;;;;;;;;;5072709;28;20486;-69
2022/01/29 08:17:25;;;;;;;5.20;3.00;;;;;;;;;;5072806;28;20990;-68
2022/01/29 08:19:51;;;;;;;5.10;3.33;;;;;;;;;;5072767;28;20559;-69
2022/01/29 08:22:17;;;;;;;5.43;3.20;;;;;;;;;;5072806;28;20399;-68
2022/01/29 08:24:44;;;;;;;5.30;3.87;;;;;;;;;;5072764;28;20565;-69
2022/01/29 08:27:10;;;;;;;3.90;3.23;;;;;;;;;;5072632;28;20404;-69
2022/01/29 08:29:36;;;;;;;4.50;3.83;;;;;;;;;;5072883;28;20410;-68
2022/01/29 08:32:02;;;;;;;11.90;3.67;;;;;;;;;;5058605;28;20429;-67
2022/01/29 08:34:28;;;;;;;6.97;4.20;;;;;;;;;;5076253;28;20813;-68
2022/01/29 08:36:58;;;;;;;4.93;3.40;;;;;;;;;;5076422;28;20420;-68
2022/01/29 08:39:24;;;;;;;6.43;3.60;;;;;;;;;;5076142;28;21019;-67
2022/01/29 08:41:51;;;;;;;5.80;3.70;;;;;;;;;;5076469;28;20402;-68
2022/01/29 08:44:17;;;;;;;7.03;3.90;;;;;;;;;;5058395;28;20422;-69
2022/01/29 08:46:43;;;;;;;5.40;3.27;;;;;;;;;;5058366;28;20888;-70
2022/01/29 08:49:09;;;;;;;3.77;3.40;;;;;;;;;;5058390;28;20551;-68
2022/01/29 08:51:35;;;;;;;3.97;3.57;;;;;;;;;;5076047;28;20402;-67
2022/01/29 08:54:01;;;;;;;7.23;4.17;;;;;;;;;;5076166;28;20488;-71
2022/01/29 08:56:27;;;;;;;5.90;3.60;;;;;;;;;;5076069;28;20405;-71
2022/01/29 08:58:53;;;;;;;5.80;3.77;;;;;;;;;;5075976;28;20867;-71
2022/01/29 09:01:19;;;;;;;4.60;3.80;;;;;;;;;;5075698;28;20510;-73
2022/01/29 09:03:45;;;;;;;7.77;3.93;;;;;;;;;;5075884;28;20406;-68
2022/01/29 09:06:11;;;;;;;5.70;3.63;;;;;;;;;;5075838;28;20435;-68
2022/01/29 09:08:39;;;;;;;5.87;3.70;;;;;;;;;;5075926;28;20549;-69
2022/01/29 09:11:05;;;;;;;6.17;4.27;;;;;;;;;;5075832;28;20430;-68
2022/01/29 09:13:31;;;;;;;6.27;3.83;;;;;;;;;;5075817;28;20411;-67
2022/01/29 09:15:58;;;;;;;6.73;4.03;;;;;;;;;;5075601;28;20412;-69
2022/01/29 09:18:24;;;;;;;4.67;3.63;;;;;;;;;;5075585;28;20403;-68
2022/01/29 09:20:50;;;;;;;5.70;4.30;;;;;;;;;;5075611;28;20914;-73
2022/01/29 09:23:16;;;;;;;5.70;3.97;;;;;;;;;;5075541;28;20895;-67
2022/01/29 09:25:42;;;;;;;6.93;4.27;;;;;;;;;;5075598;28;20406;-71
2022/01/29 09:28:09;;;;;;;6.77;3.83;;;;;;;;;;5075617;28;20453;-71
2022/01/29 09:30:35;;;;;;;5.33;4.03;;;;;;;;;;5075328;28;20408;-70
2022/01/29 09:33:01;;;;;;;6.77;3.80;;;;;;;;;;5075419;28;20394;-71
2022/01/29 09:35:28;;;;;;;5.60;3.70;;;;;;;;;;5075202;28;20393;-71
2022/01/29 09:37:54;;;;;;;6.60;3.80;;;;;;;;;;5075422;28;20422;-70
2022/01/29 09:40:21;;;;;;;8.90;4.00;;;;;;;;;;5075016;28;20463;-71
2022/01/29 09:42:49;;;;;;;6.80;4.30;;;;;;;;;;5075132;28;20430;-74
2022/01/29 09:45:16;;;;;;;6.30;3.30;;;;;;;;;;5075192;28;20421;-72
2022/01/29 09:47:43;;;;;;;6.77;3.57;;;;;;;;;;5075178;28;20438;-71
2022/01/29 09:50:10;;;;;;;5.40;3.40;;;;;;;;;;5075150;28;20504;-71
2022/01/29 09:52:36;;;;;;;5.17;3.67;;;;;;;;;;5075128;28;20401;-70
2022/01/29 09:55:03;;;;;;;11.33;4.20;;;;;;;;;;5056905;28;20405;-71
2022/01/29 09:57:29;;;;;;;4.67;3.47;;;;;;;;;;5074883;28;20756;-70
2022/01/29 09:59:55;;;;;;;6.87;4.00;;;;;;;;;;5056920;28;20479;-68
2022/01/29 10:02:22;;;;;;;6.10;4.00;;;;;;;;;;5074687;28;20458;-68
2022/01/29 10:04:52;;;;;;;4.73;3.40;;;;;;;;;;5074854;28;20423;-68
2022/01/29 10:07:19;;;;;;;5.73;3.80;;;;;;;;;;5056916;28;20500;-68
2022/01/29 10:09:46;;;;;;;5.47;3.90;;;;;;;;;;5074709;28;20413;-68
2022/01/29 10:12:16;;;;;;;4.10;3.23;;;;;;;;;;5074749;28;20434;-68
2022/01/29 10:15:11;;;;;;;4.60;3.50;;;;;;;;;;5074541;28;20411;-68
2022/01/29 10:17:38;;;;;;;6.00;3.97;;;;;;;;;;5053432;28;20918;-71
2022/01/29 10:20:08;;;;;;;8.70;4.07;;;;;;;;;;5074325;28;20831;-71
2022/01/29 10:22:35;;;;;;;8.40;4.37;;;;;;;;;;5074442;28;20393;-70
2022/01/29 10:25:05;;;;;;;5.97;3.83;;;;;;;;;;5074395;28;20492;-70
2022/01/29 10:27:31;;;;;;;5.97;3.60;;;;;;;;;;5074359;28;20398;-70
2022/01/29 10:30:00;;;;;;;5.37;3.57;;;;;;;;;;5074269;28;20463;-69
2022/01/29 10:32:28;;;;;;;7.03;3.80;;;;;;;;;;5056374;28;20412;-70
2022/01/29 10:34:55;;;;;;;5.90;4.07;;;;;;;;;;5074172;28;20414;-68
2022/01/29 10:37:25;;;;;;;6.27;3.67;;;;;;;;;;5074106;28;20392;-69
2022/01/29 10:39:53;;;;;;;5.67;3.77;;;;;;;;;;5073934;28;20475;-68
2022/01/29 10:42:23;;;;;;;5.27;3.83;;;;;;;;;;5074075;28;20397;-68
2022/01/29 10:44:51;;;;;;;7.60;3.73;;;;;;;;;;5074143;28;20398;-70
2022/01/29 10:47:17;;;;;;;5.23;3.40;;;;;;;;;;5074039;28;20488;-68
2022/01/29 10:49:53;;;;;;;6.50;3.57;;;;;;;;;;5073991;28;20524;-68
2022/01/29 10:52:25;;;;;;;7.60;4.47;;;;;;;;;;5055444;28;20943;-69
2022/01/29 10:54:59;;;;;;;5.53;3.57;;;;;;;;;;5073798;28;20398;-69
2022/01/29 10:57:30;;;;;;;4.67;3.13;;;;;;;;;;5073912;28;20420;-68
2022/01/29 10:59:56;;;;;;;5.00;3.17;;;;;;;;;;5073695;28;20476;-69
2022/01/29 11:02:29;;;;;;;3.73;2.83;;;;;;;;;;5073570;28;20454;-70
2022/01/29 11:04:55;;;;;;;3.13;2.77;;;;;;;;;;5055823;28;20437;-67
2022/01/29 11:07:26;;;;;;;3.33;3.00;;;;;;;;;;5073499;28;20446;-69
2022/01/29 11:09:52;;;;;;;3.90;2.60;;;;;;;;;;5073457;28;20416;-68
2022/01/29 11:12:22;;;;;;;3.00;2.70;;;;;;;;;;5073557;28;20495;-69
2022/01/29 11:14:49;;;;;;;3.13;2.47;;;;;;;;;;5073390;28;20405;-71
2022/01/29 11:17:18;;;;;;;2.90;2.40;;;;;;;;;;5073426;28;20499;-71
2022/01/29 11:19:44;;;;;;;3.00;2.40;;;;;;;;;;5073321;28;20480;-71
2022/01/29 11:22:11;;;;;;;2.20;2.00;;;;;;;;;;5073426;28;20440;-71
2022/01/29 11:24:39;;;;;;;2.93;2.20;;;;;;;;;;5055477;28;20846;-71
2022/01/29 11:27:25;;;;;;;3.03;2.47;;;;;;;;;;5073346;28;20401;-70
2022/01/29 11:30:02;;;;;;;3.43;2.30;;;;;;;;;;5073268;28;20397;-72
2022/01/29 11:32:39;;;;;;;3.70;2.27;;;;;;;;;;5073461;28;20891;-72
2022/01/29 11:35:28;;;;;;;3.00;2.00;;;;;;;;;;5073180;28;20942;-70
2022/01/29 11:37:54;;;;;;;4.20;2.00;;;;;;;;;;5060428;28;20406;-68
2022/01/29 11:40:27;;;;;;;3.27;2.37;;;;;;;;;;5073025;28;20462;-71
2022/01/29 11:43:06;;;;;;;3.20;2.20;;;;;;;;;;5073041;28;20458;-71
2022/01/29 11:45:36;;;;;;;2.77;2.00;;;;;;;;;;5073067;28;20780;-70
2022/01/29 11:48:02;;;;;;;2.40;1.93;;;;;;;;;;5073222;28;20400;-70
2022/01/29 11:50:28;;;;;;;2.40;2.20;;;;;;;;;;5073131;28;20416;-72
2022/01/29 11:52:55;;;;;;;2.60;2.00;;;;;;;;;;5073056;28;20414;-71
2022/01/29 11:55:34;;;;;;;2.30;2.00;;;;;;;;;;5073029;28;20393;-70
2022/01/29 11:58:15;;;;;;;4.07;2.63;;;;;;;;;;5073082;28;20412;-73
2022/01/29 12:00:42;;;;;;;3.00;1.80;;;;;;;;;;5072880;28;20456;-70
2022/01/29 12:03:28;;;;;;;4.27;2.10;;;;;;;;;;5072842;28;20521;-70
2022/01/29 12:06:28;;;;;;;2.70;2.13;;;;;;;;;;5076956;28;20762;-69
2022/01/29 12:09:07;;;;;;;1.97;1.77;;;;;;;;;;5077047;28;20730;-67
2022/01/29 12:11:34;;;;;;;3.40;1.90;;;;;;;;;;5077111;28;20412;-68
2022/01/29 12:14:16;;;;;;;2.53;1.80;;;;;;;;;;5077028;28;20432;-69
2022/01/29 12:16:47;;;;;;;3.33;2.07;;;;;;;;;;5076775;28;20420;-70
2022/01/29 12:19:32;;;;;;;7.77;2.33;;;;;;;;;;5076799;28;20996;-70
2022/01/29 12:21:58;;;;;;;2.30;2.10;;;;;;;;;;5076858;28;20403;-72
2022/01/29 12:24:24;;;;;;;3.27;2.00;;;;;;;;;;5076872;28;20408;-70
2022/01/29 12:26:55;;;;;;;3.47;2.00;;;;;;;;;;5076778;28;20448;-72
2022/01/29 12:29:22;;;;;;;2.30;1.90;;;;;;;;;;5076586;28;20436;-71
2022/01/29 12:31:52;;;;;;;3.03;2.20;;;;;;;;;;5058790;28;20422;-69
2022/01/29 12:34:20;;;;;;;2.80;2.10;;;;;;;;;;5076660;28;20404;-69
2022/01/29 12:36:46;;;;;;;1.83;1.70;;;;;;;;;;5076422;28;20891;-67
2022/01/29 12:39:20;;;;;;;2.40;1.93;;;;;;;;;;5076324;28;20455;-68
2022/01/29 12:42:01;;;;;;;2.50;1.87;;;;;;;;;;5076521;28;20921;-69
2022/01/29 12:44:27;;;;;;;1.90;1.60;;;;;;;;;;5076431;28;20875;-68
2022/01/29 12:46:53;;;;;;;3.50;1.97;;;;;;;;;;5076243;28;20963;-69
2022/01/29 12:49:19;;;;;;;3.00;1.83;;;;;;;;;;5058260;28;20508;-68
2022/01/29 12:51:51;;;;;;;1.80;1.67;;;;;;;;;;5076295;28;20470;-67
2022/01/29 12:54:17;;;;;;;2.53;2.00;;;;;;;;;;5058378;28;20419;-68
2022/01/29 12:56:43;;;;;;;3.10;1.90;;;;;;;;;;5075945;28;20396;-68
2022/01/29 12:59:11;;;;;;;3.10;2.03;;;;;;;;;;5075940;28;20544;-68
2022/01/29 13:01:37;;;;;;;4.00;2.73;;;;;;;;;;5075873;28;20452;-68
2022/01/29 13:04:04;;;;;;;2.80;2.10;;;;;;;;;;5076130;28;20816;-68
2022/01/29 13:06:31;;;;;;;4.30;2.30;;;;;;;;;;5076076;28;20442;-69
2022/01/29 13:09:13;;;;;;;2.07;1.83;;;;;;;;;;5075863;28;20449;-70
2022/01/29 13:11:39;;;;;;;4.10;2.63;;;;;;;;;;5057998;28;20413;-71
2022/01/29 13:14:16;;;;;;;2.20;2.00;;;;;;;;;;5075820;28;20404;-70
2022/01/29 13:16:42;;;;;;;2.63;2.17;;;;;;;;;;5074994;28;20411;-71
2022/01/29 13:19:08;;;;;;;2.37;1.90;;;;;;;;;;5075386;28;20475;-71
2022/01/29 13:21:34;;;;;;;3.50;2.90;;;;;;;;;;5075717;28;20405;-71
2022/01/29 13:24:01;;;;;;;2.40;1.97;;;;;;;;;;5075553;28;20413;-71
2022/01/29 13:26:29;;;;;;;2.03;1.80;;;;;;;;;;5075586;28;20397;-71
2022/01/29 13:29:00;;;;;;;2.20;2.00;;;;;;;;;;5057615;28;20433;-68
2022/01/29 13:31:27;;;;;;;2.93;2.10;;;;;;;;;;5075545;28;20427;-68
2022/01/29 13:33:53;;;;;;;4.90;2.50;;;;;;;;;;5075570;28;20820;-67
2022/01/29 13:36:34;;;;;;;2.70;2.17;;;;;;;;;;5057395;28;20412;-69
2022/01/29 13:39:06;;;;;;;4.03;2.23;;;;;;;;;;5075320;28;20452;-67
2022/01/29 13:41:32;;;;;;;2.40;2.20;;;;;;;;;;5057583;28;20449;-68
2022/01/29 13:44:07;;;;;;;3.07;2.30;;;;;;;;;;5075566;28;20519;-68
2022/01/29 13:46:33;;;;;;;2.53;2.20;;;;;;;;;;5075420;28;20403;-70
2022/01/29 13:49:02;;;;;;;2.60;2.40;;;;;;;;;;5075193;28;20409;-69
2022/01/29 13:51:28;;;;;;;2.00;1.70;;;;;;;;;;5075270;28;20409;-69
2022/01/29 13:53:55;;;;;;;2.50;2.10;;;;;;;;;;5075197;28;20401;-70
2022/01/29 13:56:21;;;;;;;5.07;2.40;;;;;;;;;;5074999;28;20423;-68
2022/01/29 13:58:52;;;;;;;3.40;1.97;;;;;;;;;;5074975;28;20481;-68
2022/01/29 14:01:33;;;;;;;2.63;2.43;;;;;;;;;;5075018;28;20779;-71
2022/01/29 14:04:00;;;;;;;3.37;2.37;;;;;;;;;;5075001;28;20549;-73
2022/01/29 14:06:30;;;;;;;3.03;2.23;;;;;;;;;;5074846;28;20458;-70
2022/01/29 14:09:08;;;;;;;2.33;2.13;;;;;;;;;;5074754;28;20491;-70
2022/01/29 14:11:53;;;;;;;2.80;2.40;;;;;;;;;;5074973;28;20895;-71
2022/01/29 14:14:19;;;;;;;3.20;2.40;;;;;;;;;;5074886;28;20397;-71
2022/01/29 14:16:45;;;;;;;2.10;1.90;;;;;;;;;;5074744;28;20402;-72
2022/01/29 14:19:17;;;;;;;1.93;1.83;;;;;;;;;;5074572;28;20470;-69
2022/01/29 14:21:44;;;;;;;3.50;2.30;;;;;;;;;;5074736;28;20403;-70
2022/01/29 14:24:10;;;;;;;2.37;1.90;;;;;;;;;;5074449;28;20404;-70
2022/01/29 14:26:37;;;;;;;2.33;1.80;;;;;;;;;;5074541;28;20408;-73
2022/01/29 14:29:03;;;;;;;2.03;1.93;;;;;;;;;;5073455;28;20486;-70
2022/01/29 14:31:29;;;;;;;2.10;1.80;;;;;;;;;;5074427;28;20441;-71
2022/01/29 14:33:55;;;;;;;3.70;2.17;;;;;;;;;;5074448;28;20466;-71
2022/01/29 14:36:21;;;;;;;2.50;2.00;;;;;;;;;;5056292;28;20545;-71
2022/01/29 14:38:47;;;;;;;3.20;1.90;;;;;;;;;;5074094;28;20537;-71
2022/01/29 14:41:14;;;;;;;2.20;2.00;;;;;;;;;;5074246;28;20416;-72
2022/01/29 14:43:40;;;;;;;2.07;1.87;;;;;;;;;;5056250;28;20409;-70
2022/01/29 14:46:06;;;;;;;2.10;1.90;;;;;;;;;;5074211;28;20447;-73
2022/01/29 14:48:32;;;;;;;3.83;2.33;;;;;;;;;;5056140;28;20844;-71
2022/01/29 14:50:58;;;;;;;3.10;2.20;;;;;;;;;;5074109;28;20420;-70
2022/01/29 14:53:24;;;;;;;2.20;2.00;;;;;;;;;;5074009;28;20771;-69
2022/01/29 14:55:50;;;;;;;1.90;1.80;;;;;;;;;;5073848;28;20431;-67
2022/01/29 14:58:16;;;;;;;2.47;2.03;;;;;;;;;;5073924;28;20472;-67